Direito Ao Destino — CUOC — position and weather

sailwx.info

Track history (hours):
 
Tides and Currents Weather Stations Pressure Air Temp Water Temp Dewpoint Dewpoint Depression Visibility Wind Speed Wind Dir Waves Ship Positions

Direito Ao Destino

Last reported at 2018-Jan-20 04:49 UTC. Time now 2018-Jan-22 08:31 UTC.
Position N 38°16' W 009°18'.

Length 16 m.

Type: Fishing. MMSI: 263412560.

Date/timePositionNaut miles runAvg speedWind from/ knotsBaromVisibWave heightAir tempDewpointWater temp
2018-Jan-20 04:49N 38°16' W 009°18'1 2.7
2018-Jan-20 04:19N 38°16' W 009°16'0 0.4
2018-Jan-20 03:30N 38°16' W 009°16'2 0.9
2018-Jan-20 01:05N 38°16' W 009°13'0 1.0
2018-Jan-20 00:46N 38°16' W 009°13'0 0.9
2018-Jan-20 00:29N 38°16' W 009°12'0 0.8
2018-Jan-19 23:54N 38°16' W 009°12'4 1.0
2018-Jan-19 19:59N 38°19' W 009°15'1 1.2
2018-Jan-19 19:18N 38°19' W 009°16'1 1.2
2018-Jan-19 18:51N 38°19' W 009°17'0 0.9
2018-Jan-19 18:19N 38°20' W 009°17'0 0.8
2018-Jan-19 17:55N 38°20' W 009°18'3 1.2
2018-Jan-19 15:29N 38°22' W 009°16'8 0.3
2018-Jan-18 08:28N 38°26' W 009°07'8 8.3
2018-Jan-18 07:32N 38°19' W 009°10'2 7.5
2018-Jan-18 07:14N 38°17' W 009°11'2 4.3
2018-Jan-18 06:51N 38°16' W 009°13'2 4.4
2018-Jan-18 06:25N 38°17' W 009°15'2 3.8
2018-Jan-18 05:54N 38°16' W 009°18'3 0.8
2018-Jan-18 02:20N 38°16' W 009°14'  
2018-Jan-11 00:53N 38°16' W 009°12'6 2.8
2018-Jan-10 22:52N 38°20' W 009°17'1 0.6
2018-Jan-10 20:27N 38°19' W 009°16'1 1.2
2018-Jan-10 19:45N 38°20' W 009°17'0 1.0
2018-Jan-10 19:28N 38°20' W 009°17'  
Track history (hours):
 
Tides and Currents Weather Stations Pressure Air Temp Water Temp Dewpoint Dewpoint Depression Visibility Wind Speed Wind Dir Waves Ship Positions

Direito Ao Destino

Last reported at 2018-Jan-20 04:49 UTC. Time now 2018-Jan-22 08:31 UTC.
Position N 38°16' W 009°18'.

Length 16 m.

Type: Fishing. MMSI: 263412560.

Date/timePositionNaut miles runAvg speedWind from/ knotsBaromVisibWave heightAir tempDewpointWater temp
2018-Jan-20 04:49N 38°16' W 009°18'1 2.7
2018-Jan-20 04:19N 38°16' W 009°16'0 0.4
2018-Jan-20 03:30N 38°16' W 009°16'2 0.9
2018-Jan-20 01:05N 38°16' W 009°13'0 1.0
2018-Jan-20 00:46N 38°16' W 009°13'0 0.9
2018-Jan-20 00:29N 38°16' W 009°12'0 0.8
2018-Jan-19 23:54N 38°16' W 009°12'4 1.0
2018-Jan-19 19:59N 38°19' W 009°15'1 1.2
2018-Jan-19 19:18N 38°19' W 009°16'1 1.2
2018-Jan-19 18:51N 38°19' W 009°17'0 0.9
2018-Jan-19 18:19N 38°20' W 009°17'0 0.8
2018-Jan-19 17:55N 38°20' W 009°18'3 1.2
2018-Jan-19 15:29N 38°22' W 009°16'8 0.3
2018-Jan-18 08:28N 38°26' W 009°07'8 8.3
2018-Jan-18 07:32N 38°19' W 009°10'2 7.5
2018-Jan-18 07:14N 38°17' W 009°11'2 4.3
2018-Jan-18 06:51N 38°16' W 009°13'2 4.4
2018-Jan-18 06:25N 38°17' W 009°15'2 3.8
2018-Jan-18 05:54N 38°16' W 009°18'3 0.8
2018-Jan-18 02:20N 38°16' W 009°14'  
2018-Jan-11 00:53N 38°16' W 009°12'6 2.8
2018-Jan-10 22:52N 38°20' W 009°17'1 0.6
2018-Jan-10 20:27N 38°19' W 009°16'1 1.2
2018-Jan-10 19:45N 38°20' W 009°17'0 1.0
2018-Jan-10 19:28N 38°20' W 009°17'  

Dump ship's entire track history